Time;durP1;ratioP1;P1;durP2;ratioP2;P2;SDS_P1;SDS_P2;PMS_P1;PMS_P2;Temp;Humidity;BMP_temperature;BMP_pressure;BME280_temperature;BME280_humidity;BME280_pressure;Samples;Min_cycle;Max_cycle;Signal;HPM_P1;HPM_P2
2021/11/14 00:00:28;;;;;;;35.80;20.15;;;;;;;-139.48;100.00;61774.03;4954163;29;19921;-65
2021/11/14 00:03:13;;;;;;;35.08;21.73;;;;;;;-139.48;100.00;61774.03;4954568;28;20109;-65
2021/11/14 00:05:57;;;;;;;36.00;21.92;;;;;;;-139.48;100.00;61774.03;4957591;28;20429;-66
2021/11/14 00:08:41;;;;;;;35.20;21.42;;;;;;;-139.48;100.00;61774.03;4957708;29;20128;-64
2021/11/14 00:11:25;;;;;;;36.35;22.05;;;;;;;-139.48;100.00;61774.03;4943921;29;20074;-65
2021/11/14 00:14:09;;;;;;;37.13;21.73;;;;;;;-139.48;100.00;61774.03;4944048;29;20085;-65
2021/11/14 00:16:53;;;;;;;36.78;20.55;;;;;;;-139.48;100.00;61774.03;4957523;28;20404;-65
2021/11/14 00:19:37;;;;;;;37.72;20.92;;;;;;;-139.48;100.00;61774.03;4958273;29;20083;-65
2021/11/14 00:22:21;;;;;;;35.53;20.85;;;;;;;-139.48;100.00;61774.03;4958402;29;20130;-65
2021/11/14 00:25:07;;;;;;;39.58;21.73;;;;;;;-139.48;100.00;61774.03;4958064;29;20129;-65
2021/11/14 00:27:51;;;;;;;33.75;20.17;;;;;;;-139.48;100.00;61774.03;4958053;28;20046;-65
2021/11/14 00:30:36;;;;;;;37.03;21.65;;;;;;;-139.48;100.00;61774.03;4957140;29;20533;-65
2021/11/14 00:33:21;;;;;;;39.42;22.30;;;;;;;-139.48;100.00;61774.03;4957272;29;20070;-65
2021/11/14 00:36:05;;;;;;;35.05;21.08;;;;;;;-139.48;100.00;61774.03;4956851;28;20145;-65
2021/11/14 00:38:51;;;;;;;34.30;20.48;;;;;;;-139.48;100.00;61774.03;4957247;29;20110;-65
2021/11/14 00:41:36;;;;;;;41.00;22.35;;;;;;;-139.48;100.00;61774.03;4957140;29;20053;-64
2021/11/14 00:44:20;;;;;;;40.88;21.98;;;;;;;-139.48;100.00;61774.03;4956821;29;20050;-65
2021/11/14 00:47:04;;;;;;;35.90;20.73;;;;;;;-139.48;100.00;61774.03;4943256;29;20078;-66
2021/11/14 00:49:49;;;;;;;36.35;20.17;;;;;;;-139.48;100.00;61774.03;4956946;29;20101;-65
2021/11/14 00:52:34;;;;;;;39.67;20.55;;;;;;;-139.48;100.00;61774.03;4957119;29;20424;-65
2021/11/14 00:55:20;;;;;;;41.72;21.85;;;;;;;-139.48;100.00;61774.03;4957139;29;20098;-65
2021/11/14 00:58:04;;;;;;;40.55;22.77;;;;;;;-139.48;100.00;61774.03;4958588;28;20503;-65
2021/11/14 01:00:48;;;;;;;38.17;22.85;;;;;;;-139.48;100.00;61774.03;4957479;29;20113;-65
2021/11/14 01:03:32;;;;;;;41.70;22.27;;;;;;;-139.48;100.00;61774.03;4957737;29;20109;-65
2021/11/14 01:06:16;;;;;;;38.03;21.40;;;;;;;-139.48;100.00;61774.03;4957608;28;20086;-65
2021/11/14 01:09:00;;;;;;;36.45;20.88;;;;;;;-139.48;100.00;61774.03;4956581;29;20059;-65
2021/11/14 01:11:44;;;;;;;44.08;22.70;;;;;;;-139.48;100.00;61774.03;4957668;29;20058;-66
2021/11/14 01:14:28;;;;;;;36.03;21.00;;;;;;;-139.48;100.00;61774.03;4942155;28;20057;-65
2021/11/14 01:17:12;;;;;;;35.70;21.60;;;;;;;-139.48;100.00;61774.03;4956713;28;20137;-66
2021/11/14 01:19:57;;;;;;;32.97;20.67;;;;;;;-139.48;100.00;61774.03;4956329;29;20528;-65
2021/11/14 01:22:41;;;;;;;34.60;20.95;;;;;;;-139.48;100.00;61774.03;4956396;29;20070;-65
2021/11/14 01:25:25;;;;;;;37.45;22.98;;;;;;;-139.48;100.00;61774.03;4956018;29;20058;-65
2021/11/14 01:28:09;;;;;;;44.83;22.98;;;;;;;-139.48;100.00;61774.03;4956916;28;20070;-65
2021/11/14 01:30:56;;;;;;;46.28;23.42;;;;;;;-139.48;100.00;61774.03;4942416;29;20053;-65
2021/11/14 01:33:40;;;;;;;40.03;23.45;;;;;;;-139.48;100.00;61774.03;4955899;29;20054;-65
2021/11/14 01:36:24;;;;;;;40.60;23.05;;;;;;;-139.48;100.00;61774.03;4955766;28;20047;-66
2021/11/14 01:39:09;;;;;;;44.97;22.90;;;;;;;-139.48;100.00;61774.03;4957302;29;20122;-65
2021/11/14 01:41:53;;;;;;;39.55;21.88;;;;;;;-139.48;100.00;61774.03;4956748;29;20051;-65
2021/11/14 01:44:36;;;;;;;40.85;22.73;;;;;;;-139.48;100.00;61774.03;4956874;29;20054;-64
2021/11/14 01:47:20;;;;;;;38.60;21.77;;;;;;;-139.48;100.00;61774.03;4956479;28;20131;-65
2021/11/14 01:50:06;;;;;;;42.35;22.92;;;;;;;-139.48;100.00;61774.03;4956144;29;20127;-65
2021/11/14 01:52:52;;;;;;;41.80;22.80;;;;;;;-139.48;100.00;61774.03;4955584;29;20050;-65
2021/11/14 01:55:41;;;;;;;41.67;23.67;;;;;;;-139.48;100.00;61774.03;4955544;29;20046;-64
2021/11/14 01:58:27;;;;;;;37.90;21.60;;;;;;;-139.48;100.00;61774.03;4956696;29;20464;-65
2021/11/14 02:01:24;;;;;;;39.92;22.10;;;;;;;-139.48;100.00;61774.03;4955681;29;20094;-65
2021/11/14 02:04:08;;;;;;;35.13;21.45;;;;;;;-139.48;100.00;61774.03;4955846;29;20142;-65
2021/11/14 02:06:52;;;;;;;38.75;20.75;;;;;;;-139.48;100.00;61774.03;4956341;28;20050;-64
2021/11/14 02:09:36;;;;;;;45.25;24.58;;;;;;;-139.48;100.00;61774.03;4955543;29;20551;-65
2021/11/14 02:12:20;;;;;;;40.80;22.92;;;;;;;-139.48;100.00;61774.03;4955562;29;20138;-65
2021/11/14 02:15:05;;;;;;;42.67;23.92;;;;;;;-139.48;100.00;61774.03;4941881;29;20058;-64
2021/11/14 02:17:49;;;;;;;45.47;25.20;;;;;;;-139.48;100.00;61774.03;4956253;28;20412;-64
2021/11/14 02:20:34;;;;;;;44.45;23.13;;;;;;;-139.48;100.00;61774.03;4955075;29;20479;-65
2021/11/14 02:23:20;;;;;;;43.88;23.58;;;;;;;-139.48;100.00;61774.03;4956221;29;20050;-65
2021/11/14 02:26:04;;;;;;;35.30;20.35;;;;;;;-139.48;100.00;61774.03;4955703;28;20049;-65
2021/11/14 02:28:48;;;;;;;37.45;21.92;;;;;;;-139.48;100.00;61774.03;4956195;29;20054;-65
2021/11/14 02:31:33;;;;;;;33.95;19.77;;;;;;;-139.48;100.00;61774.03;4955187;29;20054;-65
2021/11/14 02:34:16;;;;;;;28.05;17.15;;;;;;;-139.48;100.00;61774.03;4956092;29;20137;-64
2021/11/14 02:37:00;;;;;;;32.67;18.80;;;;;;;-139.48;100.00;61774.03;4957432;28;20050;-64
2021/11/14 02:39:44;;;;;;;50.67;24.73;;;;;;;-139.48;100.00;61774.03;4955855;29;20051;-65
2021/11/14 02:42:28;;;;;;;47.53;23.45;;;;;;;-139.48;100.00;61774.03;4954986;29;20106;-65
2021/11/14 02:45:13;;;;;;;36.55;20.80;;;;;;;-139.48;100.00;61774.03;4955821;29;20417;-64
2021/11/14 02:47:58;;;;;;;27.38;17.00;;;;;;;-139.48;100.00;61774.03;4954548;28;20131;-62
2021/11/14 02:50:43;;;;;;;25.98;16.42;;;;;;;-139.48;100.00;61774.03;4955806;29;20129;-65
2021/11/14 02:53:27;;;;;;;27.10;16.50;;;;;;;-139.48;100.00;61774.03;4954544;29;20053;-65
2021/11/14 02:56:13;;;;;;;26.13;15.82;;;;;;;-139.48;100.00;61774.03;4955576;28;20050;-65
2021/11/14 02:58:57;;;;;;;22.58;14.57;;;;;;;-139.48;100.00;61774.03;4954720;29;20645;-65
2021/11/14 03:01:46;;;;;;;23.70;14.68;;;;;;;-139.48;100.00;61774.03;4954405;29;20054;-64
2021/11/14 03:04:31;;;;;;;23.77;15.02;;;;;;;-139.48;100.00;61774.03;4954628;29;20050;-65
2021/11/14 03:07:15;;;;;;;36.22;19.42;;;;;;;-139.48;100.00;61774.03;4940824;29;20046;-65
2021/11/14 03:09:59;;;;;;;26.45;16.10;;;;;;;-139.48;100.00;61774.03;4954606;29;20054;-65
2021/11/14 03:12:55;;;;;;;26.05;15.85;;;;;;;-139.48;100.00;61774.03;4955257;29;20520;-65
2021/11/14 03:15:50;;;;;;;19.90;13.85;;;;;;;-139.48;100.00;61774.03;4954174;29;20050;-64
2021/11/14 03:18:34;;;;;;;25.55;15.27;;;;;;;-139.48;100.00;61774.03;4954739;29;20137;-65
2021/11/14 03:21:18;;;;;;;24.83;16.20;;;;;;;-139.48;100.00;61774.03;4955459;29;20054;-65
2021/11/14 03:24:03;;;;;;;23.90;14.40;;;;;;;-139.48;100.00;61774.03;4955092;29;20053;-65
2021/11/14 03:26:47;;;;;;;30.20;16.95;;;;;;;-139.48;100.00;61774.03;4954920;28;20106;-65
2021/11/14 03:29:30;;;;;;;30.83;20.67;;;;;;;-139.48;100.00;61774.03;4954602;29;20090;-65
2021/11/14 03:32:14;;;;;;;34.40;19.88;;;;;;;-139.48;100.00;61774.03;4955051;29;20046;-65
2021/11/14 03:34:59;;;;;;;38.67;18.55;;;;;;;-139.48;100.00;61774.03;4954287;29;20146;-65
2021/11/14 03:37:43;;;;;;;30.33;17.83;;;;;;;-139.48;100.00;61774.03;4954946;28;20050;-65
2021/11/14 03:40:27;;;;;;;25.48;16.08;;;;;;;-139.48;100.00;61774.03;4958946;29;20125;-65
2021/11/14 03:43:11;;;;;;;26.30;15.73;;;;;;;-139.48;100.00;61774.03;4957944;29;20508;-65
2021/11/14 03:45:55;;;;;;;26.27;15.27;;;;;;;-139.48;100.00;61774.03;4958958;28;20106;-64
2021/11/14 03:48:42;;;;;;;24.77;15.10;;;;;;;-139.48;100.00;61774.03;4959066;29;20417;-63
2021/11/14 03:51:26;;;;;;;26.83;16.63;;;;;;;-139.48;100.00;61774.03;4957739;29;20110;-66
2021/11/14 03:54:10;;;;;;;24.70;15.60;;;;;;;-139.48;100.00;61774.03;4957988;29;20106;-65
2021/11/14 03:56:53;;;;;;;41.58;20.65;;;;;;;-139.48;100.00;61774.03;4958552;28;20129;-65
2021/11/14 03:59:37;;;;;;;30.00;18.25;;;;;;;-139.48;100.00;61774.03;4958815;29;20062;-66
2021/11/14 04:02:21;;;;;;;45.60;23.92;;;;;;;-139.48;100.00;61774.03;4958086;29;20086;-65
2021/11/14 04:05:06;;;;;;;44.65;24.20;;;;;;;-139.48;100.00;61774.03;4958421;29;20101;-63
2021/11/14 04:07:50;;;;;;;40.25;22.08;;;;;;;-139.48;100.00;61774.03;4957393;28;20054;-65
2021/11/14 04:10:35;;;;;;;48.17;24.73;;;;;;;-139.48;100.00;61774.03;4958715;29;20082;-65
2021/11/14 04:13:19;;;;;;;36.95;20.85;;;;;;;-139.48;100.00;61774.03;4957685;29;20082;-65
2021/11/14 04:16:06;;;;;;;39.08;21.10;;;;;;;-139.48;100.00;61774.03;4957369;28;20533;-65
2021/11/14 04:18:50;;;;;;;38.97;21.88;;;;;;;-139.48;100.00;61774.03;4957555;29;20054;-65
2021/11/14 04:21:34;;;;;;;38.80;20.90;;;;;;;-139.48;100.00;61774.03;4957549;29;20093;-65
2021/11/14 04:24:17;;;;;;;35.67;20.42;;;;;;;-139.48;100.00;61774.03;4958431;29;20476;-65
2021/11/14 04:27:02;;;;;;;36.67;21.30;;;;;;;-139.48;100.00;61774.03;4957969;28;20428;-65
2021/11/14 04:29:46;;;;;;;35.33;20.38;;;;;;;-139.48;100.00;61774.03;4957375;29;20102;-65
2021/11/14 04:32:30;;;;;;;38.88;21.55;;;;;;;-139.48;100.00;61774.03;4958024;29;20070;-65
2021/11/14 04:35:15;;;;;;;56.47;23.23;;;;;;;-139.48;100.00;61774.03;4957106;29;20094;-65
2021/11/14 04:37:59;;;;;;;39.13;20.70;;;;;;;-139.48;100.00;61774.03;4956768;28;20054;-65
2021/11/14 04:40:43;;;;;;;63.53;26.75;;;;;;;-139.48;100.00;61774.03;4943406;29;20428;-65
2021/11/14 04:43:27;;;;;;;54.10;24.90;;;;;;;-139.48;100.00;61774.03;4957835;29;20145;-65
2021/11/14 04:46:11;;;;;;;48.40;24.25;;;;;;;-139.48;100.00;61774.03;4956949;28;20137;-65
2021/11/14 04:48:55;;;;;;;38.35;21.00;;;;;;;-139.48;100.00;61774.03;4957891;28;20054;-64
2021/11/14 04:51:39;;;;;;;48.17;24.52;;;;;;;-139.48;100.00;61774.03;4957724;29;20424;-65
2021/11/14 04:54:24;;;;;;;50.88;26.02;;;;;;;-139.48;100.00;61774.03;4957945;29;20054;-65
2021/11/14 04:57:08;;;;;;;44.22;22.45;;;;;;;-139.48;100.00;61774.03;4956892;28;20070;-65
2021/11/14 04:59:52;;;;;;;45.28;22.90;;;;;;;-139.48;100.00;61774.03;4957766;29;20054;-65
2021/11/14 05:02:37;;;;;;;52.45;24.73;;;;;;;-139.48;100.00;61774.03;4957789;29;20106;-65
2021/11/14 05:05:21;;;;;;;56.38;25.52;;;;;;;-139.48;100.00;61774.03;4957381;29;20046;-65
2021/11/14 05:08:05;;;;;;;54.10;24.73;;;;;;;-139.48;100.00;61774.03;4956449;28;20054;-63
2021/11/14 05:10:50;;;;;;;49.72;24.08;;;;;;;-139.48;100.00;61774.03;4957353;29;20058;-65
2021/11/14 05:13:34;;;;;;;52.10;24.02;;;;;;;-139.48;100.00;61774.03;4956641;29;20054;-65
2021/11/14 05:16:18;;;;;;;58.35;25.27;;;;;;;-139.48;100.00;61774.03;4957269;28;20074;-65
2021/11/14 05:19:02;;;;;;;45.80;23.40;;;;;;;-139.48;100.00;61774.03;4956495;29;20432;-65
2021/11/14 05:21:47;;;;;;;46.90;21.75;;;;;;;-139.48;100.00;61774.03;4942933;29;20127;-65
2021/11/14 05:24:31;;;;;;;36.63;18.95;;;;;;;-139.48;100.00;61774.03;4957074;29;20098;-65
2021/11/14 05:27:15;;;;;;;42.65;22.90;;;;;;;-139.48;100.00;61774.03;4956922;28;20048;-64
2021/11/14 05:29:59;;;;;;;47.42;21.05;;;;;;;-139.48;100.00;61774.03;4956314;29;20512;-64
2021/11/14 05:32:43;;;;;;;40.13;22.38;;;;;;;-139.48;100.00;61774.03;4956068;29;20597;-65
2021/11/14 05:35:27;;;;;;;40.75;20.15;;;;;;;-139.48;100.00;61774.03;4957162;29;20658;-65
2021/11/14 05:38:12;;;;;;;43.33;20.85;;;;;;;-139.48;100.00;61774.03;4955775;29;20106;-65
2021/11/14 05:40:56;;;;;;;33.28;18.70;;;;;;;-139.48;100.00;61774.03;4955913;29;20416;-65
2021/11/14 05:43:40;;;;;;;;;;;;;;;-139.48;100.00;61774.03;4956464;29;20106;-65
2021/11/14 05:46:24;;;;;;;28.10;18.73;;;;;;;-139.48;100.00;61774.03;4955782;28;19925;-65
2021/11/14 05:49:09;;;;;;;30.25;18.25;;;;;;;-139.48;100.00;61774.03;4955928;29;20050;-65
2021/11/14 05:51:53;;;;;;;30.58;19.17;;;;;;;-139.48;100.00;61774.03;4955848;29;20110;-65
2021/11/14 05:54:37;;;;;;;27.70;17.90;;;;;;;-139.48;100.00;61774.03;4956082;29;20475;-65
2021/11/14 05:57:22;;;;;;;29.88;18.00;;;;;;;-139.48;100.00;61774.03;4955485;28;20061;-65
2021/11/14 06:00:09;;;;;;;24.38;17.23;;;;;;;-139.48;100.00;61774.03;4956737;29;20568;-65
2021/11/14 06:03:06;;;;;;;31.25;17.55;;;;;;;-139.48;100.00;61774.03;4956133;29;20049;-65
2021/11/14 06:05:50;;;;;;;26.08;16.80;;;;;;;-139.48;100.00;61774.03;4956463;28;20090;-65
2021/11/14 06:08:35;;;;;;;21.67;15.93;;;;;;;-139.48;100.00;61774.03;4956578;29;20081;-65
2021/11/14 06:11:22;;;;;;;27.83;16.55;;;;;;;-139.48;100.00;61774.03;4941996;29;20070;-65
2021/11/14 06:14:06;;;;;;;22.92;14.90;;;;;;;-139.48;100.00;61774.03;4955459;29;20049;-65
2021/11/14 06:16:50;;;;;;;25.55;17.45;;;;;;;-139.48;100.00;61774.03;4956205;28;20046;-65
2021/11/14 06:19:34;;;;;;;34.80;18.35;;;;;;;-139.48;100.00;61774.03;4955149;29;20054;-65
2021/11/14 06:22:19;;;;;;;29.02;18.67;;;;;;;-139.48;100.00;61774.03;4956023;29;20058;-65
2021/11/14 06:25:03;;;;;;;36.38;19.95;;;;;;;-139.48;100.00;61774.03;4956224;29;20054;-65
2021/11/14 06:27:47;;;;;;;27.85;17.70;;;;;;;-139.48;100.00;61774.03;4941345;29;20082;-66
2021/11/14 06:30:32;;;;;;;28.45;17.83;;;;;;;-139.48;100.00;61774.03;4956017;29;20122;-65
2021/11/14 06:33:15;;;;;;;25.77;16.73;;;;;;;-139.48;100.00;61774.03;4956101;29;20551;-64
2021/11/14 06:35:59;;;;;;;25.90;17.42;;;;;;;-139.48;100.00;61774.03;4955837;28;20073;-65
2021/11/14 06:38:43;;;;;;;29.50;18.15;;;;;;;-139.48;100.00;61774.03;4955706;29;20054;-65
2021/11/14 06:41:27;;;;;;;27.60;18.38;;;;;;;-139.48;100.00;61774.03;4955982;29;20101;-65
2021/11/14 06:44:11;;;;;;;29.02;18.48;;;;;;;-139.48;100.00;61774.03;4955970;29;20074;-65
2021/11/14 06:46:55;;;;;;;35.53;19.95;;;;;;;-139.48;100.00;61774.03;4954532;28;20480;-65
2021/11/14 06:49:39;;;;;;;30.73;18.50;;;;;;;-139.48;100.00;61774.03;4955637;29;20057;-65
2021/11/14 06:52:23;;;;;;;33.78;20.50;;;;;;;-139.48;100.00;61774.03;4955967;29;20054;-65
2021/11/14 06:55:09;;;;;;;32.63;21.10;;;;;;;-139.48;100.00;61774.03;4955941;29;20074;-65
2021/11/14 06:57:53;;;;;;;35.42;23.08;;;;;;;-139.48;100.00;61774.03;4955807;28;20401;-65
2021/11/14 07:00:41;;;;;;;36.42;22.08;;;;;;;-139.48;100.00;61774.03;4955694;29;20421;-65
2021/11/14 07:03:25;;;;;;;36.60;21.13;;;;;;;-139.48;100.00;61774.03;4955657;29;20050;-65
2021/11/14 07:06:09;;;;;;;34.75;22.10;;;;;;;-139.48;100.00;61774.03;4955162;28;20110;-65
2021/11/14 07:08:53;;;;;;;36.80;21.95;;;;;;;-139.48;100.00;61774.03;4955614;29;20118;-65
2021/11/14 07:11:39;;;;;;;35.60;22.45;;;;;;;-139.48;100.00;61774.03;4954582;29;20049;-65
2021/11/14 07:14:24;;;;;;;33.58;22.45;;;;;;;-139.48;100.00;61774.03;4954562;29;20050;-65
2021/11/14 07:17:08;;;;;;;34.50;22.70;;;;;;;-139.48;100.00;61774.03;4954235;28;20041;-64
2021/11/14 07:19:53;;;;;;;36.38;23.13;;;;;;;-139.48;100.00;61774.03;4940935;29;20499;-64
2021/11/14 07:22:38;;;;;;;37.05;23.05;;;;;;;-139.48;100.00;61774.03;4955116;29;20106;-65
2021/11/14 07:25:22;;;;;;;38.67;23.38;;;;;;;-139.48;100.00;61774.03;4954302;29;20178;-65
2021/11/14 07:28:06;;;;;;;38.50;23.63;;;;;;;-139.48;100.00;61774.03;4954330;28;20054;-64
2021/11/14 07:30:50;;;;;;;35.03;24.73;;;;;;;-139.48;100.00;61774.03;4954159;29;20511;-65
2021/11/14 07:33:34;;;;;;;37.78;24.65;;;;;;;-139.48;100.00;61774.03;4941020;29;20126;-64
2021/11/14 07:36:17;;;;;;;34.08;24.48;;;;;;;-139.48;100.00;61774.03;4955033;28;20512;-65
2021/11/14 07:39:03;;;;;;;35.13;23.42;;;;;;;-139.48;100.00;61774.03;4955037;29;20133;-65
2021/11/14 07:41:47;;;;;;;36.80;24.77;;;;;;;-139.48;100.00;61774.03;4954254;29;20405;-65
2021/11/14 07:44:31;;;;;;;34.38;24.08;;;;;;;-139.48;100.00;61774.03;4955180;29;20050;-64
2021/11/14 07:47:15;;;;;;;35.67;23.95;;;;;;;-139.48;100.00;61774.03;4954795;28;20048;-65
2021/11/14 07:49:59;;;;;;;39.92;26.38;;;;;;;-139.48;100.00;61774.03;4954865;29;20050;-65
2021/11/14 07:52:43;;;;;;;38.53;26.48;;;;;;;-139.48;100.00;61774.03;4955094;29;20050;-64
2021/11/14 07:55:27;;;;;;;34.78;24.83;;;;;;;-139.48;100.00;61774.03;4953876;29;20050;-65
2021/11/14 07:58:11;;;;;;;35.55;24.67;;;;;;;-139.48;100.00;61774.03;4954121;29;20468;-64
2021/11/14 08:00:55;;;;;;;38.63;24.70;;;;;;;-139.48;100.00;61774.03;4955107;29;20186;-65
2021/11/14 08:03:39;;;;;;;39.28;26.75;;;;;;;-139.48;100.00;61774.03;4955301;29;20053;-65
2021/11/14 08:06:23;;;;;;;40.85;27.33;;;;;;;-139.48;100.00;61774.03;4953633;28;20534;-65
2021/11/14 08:09:07;;;;;;;46.70;27.92;;;;;;;-139.48;100.00;61774.03;4953675;29;20228;-65
2021/11/14 08:11:51;;;;;;;48.78;29.40;;;;;;;-139.48;100.00;61774.03;4954605;29;20552;-65
2021/11/14 08:14:35;;;;;;;46.67;31.30;;;;;;;-139.48;100.00;61774.03;4953753;29;20146;-65
2021/11/14 08:17:19;;;;;;;49.53;30.42;;;;;;;-139.48;100.00;61774.03;4954242;28;20046;-65
2021/11/14 08:20:05;;;;;;;46.95;30.10;;;;;;;-139.48;100.00;61774.03;4953599;29;20050;-65
2021/11/14 08:22:49;;;;;;;48.47;28.13;;;;;;;-139.48;100.00;61774.03;4954292;29;20050;-65
2021/11/14 08:25:34;;;;;;;46.78;27.10;;;;;;;-139.48;100.00;61774.03;4955947;28;20515;-65
2021/11/14 08:28:18;;;;;;;48.90;28.20;;;;;;;-139.48;100.00;61774.03;4957821;29;20102;-65
2021/11/14 08:31:03;;;;;;;41.10;28.45;;;;;;;-139.48;100.00;61774.03;4958031;29;20049;-64
2021/11/14 08:33:48;;;;;;;53.70;30.55;;;;;;;-139.48;100.00;61774.03;4957692;29;20061;-63
2021/11/14 08:36:32;;;;;;;40.42;25.40;;;;;;;-139.48;100.00;61774.03;4957726;28;20058;-68
2021/11/14 08:39:16;;;;;;;47.00;29.33;;;;;;;-139.48;100.00;61774.03;4957757;29;20142;-64
2021/11/14 08:42:01;;;;;;;44.35;29.27;;;;;;;-139.48;100.00;61774.03;4987872;23;20133;-66
2021/11/14 08:44:45;;;;;;;43.90;29.65;;;;;;;-139.48;100.00;61774.03;4975862;28;20053;-68
2021/11/14 08:47:30;;;;;;;49.17;27.60;;;;;;;-139.48;100.00;61774.03;4975713;28;20081;-67
2021/11/14 08:50:14;;;;;;;42.92;26.90;;;;;;;-139.48;100.00;61774.03;4962044;28;20194;-67
2021/11/14 08:52:58;;;;;;;40.60;24.42;;;;;;;-139.48;100.00;61774.03;4956120;28;20413;-67
2021/11/14 08:55:42;;;;;;;38.90;25.30;;;;;;;-139.48;100.00;61774.03;4969730;28;20070;-67
2021/11/14 08:58:28;;;;;;;38.33;25.90;;;;;;;-139.48;100.00;61774.03;4969858;28;20058;-67
2021/11/14 09:01:12;;;;;;;32.33;22.73;;;;;;;-139.48;100.00;61774.03;4970012;28;20139;-69
2021/11/14 09:03:56;;;;;;;38.13;24.40;;;;;;;-139.48;100.00;61774.03;4969828;28;20046;-68
2021/11/14 09:06:40;;;;;;;40.17;23.77;;;;;;;-139.48;100.00;61774.03;4956050;29;20046;-69
2021/11/14 09:09:24;;;;;;;39.30;26.05;;;;;;;-139.48;100.00;61774.03;4969614;28;20053;-69
2021/11/14 09:12:08;;;;;;;33.95;23.52;;;;;;;-139.48;100.00;61774.03;4969667;28;20054;-69
2021/11/14 09:14:52;;;;;;;34.00;22.38;;;;;;;-139.48;100.00;61774.03;4956831;29;20110;-69
2021/11/14 09:17:37;;;;;;;30.65;22.05;;;;;;;-139.48;100.00;61774.03;4969650;28;20054;-69
2021/11/14 09:20:21;;;;;;;27.77;20.05;;;;;;;-139.48;100.00;61774.03;4969576;28;20508;-69
2021/11/14 09:23:05;;;;;;;26.13;19.25;;;;;;;-139.48;100.00;61774.03;4969735;28;20057;-65
2021/11/14 09:25:49;;;;;;;29.35;20.05;;;;;;;-139.48;100.00;61774.03;4969194;28;20144;-69
2021/11/14 09:28:33;;;;;;;28.42;19.50;;;;;;;-139.48;100.00;61774.03;4969518;28;20062;-68
2021/11/14 09:31:17;;;;;;;27.58;19.60;;;;;;;-139.48;100.00;61774.03;4969441;28;20054;-68
2021/11/14 09:34:02;;;;;;;24.40;18.05;;;;;;;-139.48;100.00;61774.03;4969125;28;20082;-69
2021/11/14 09:36:47;;;;;;;24.63;18.20;;;;;;;-139.48;100.00;61774.03;4968232;28;20050;-68
2021/11/14 09:39:32;;;;;;;27.98;18.67;;;;;;;-139.48;100.00;61774.03;4969186;28;20050;-68
2021/11/14 09:42:16;;;;;;;26.27;18.55;;;;;;;-139.48;100.00;61774.03;4968926;28;20094;-69
2021/11/14 09:45:00;;;;;;;21.73;15.80;;;;;;;-139.48;100.00;61774.03;4955572;29;20058;-68
2021/11/14 09:47:44;;;;;;;20.42;15.82;;;;;;;-139.48;100.00;61774.03;4969180;28;20038;-68
2021/11/14 09:50:28;;;;;;;22.35;16.10;;;;;;;-139.48;100.00;61774.03;4969157;28;20066;-68
2021/11/14 09:53:12;;;;;;;21.85;16.23;;;;;;;-139.48;100.00;61774.03;4968983;28;20420;-69
2021/11/14 09:55:58;;;;;;;27.48;18.90;;;;;;;-139.48;100.00;61774.03;4969179;28;20058;-68
2021/11/14 09:58:42;;;;;;;27.73;19.45;;;;;;;-139.48;100.00;61774.03;4968596;28;20053;-68
2021/11/14 10:01:26;;;;;;;30.85;19.80;;;;;;;-139.48;100.00;61774.03;4968664;28;20054;-68
2021/11/14 10:04:13;;;;;;;27.63;19.08;;;;;;;-139.48;100.00;61774.03;4968788;28;20054;-68
2021/11/14 10:06:59;;;;;;;26.98;18.55;;;;;;;-139.48;100.00;61774.03;4968643;28;20135;-68
2021/11/14 10:09:49;;;;;;;27.95;20.55;;;;;;;-139.48;100.00;61774.03;4955838;29;20222;-68
2021/11/14 10:12:35;;;;;;;34.05;21.45;;;;;;;-139.48;100.00;61774.03;4968448;28;20053;-68
2021/11/14 10:15:21;;;;;;;28.30;19.45;;;;;;;-139.48;100.00;61774.03;4968279;28;20520;-68
2021/11/14 10:18:06;;;;;;;29.52;21.50;;;;;;;-139.48;100.00;61774.03;4954699;29;20054;-68
2021/11/14 10:20:51;;;;;;;31.25;21.75;;;;;;;-139.48;100.00;61774.03;4955908;29;20413;-67
2021/11/14 10:23:35;;;;;;;33.65;22.65;;;;;;;-139.48;100.00;61774.03;4968410;28;20050;-68
2021/11/14 10:26:20;;;;;;;32.67;20.90;;;;;;;-139.48;100.00;61774.03;4955415;29;20464;-68
2021/11/14 10:29:10;;;;;;;30.67;21.20;;;;;;;-139.48;100.00;61774.03;4968350;28;20232;-68
2021/11/14 10:32:08;;;;;;;32.05;21.48;;;;;;;-139.48;100.00;61774.03;4968052;28;20046;-68
2021/11/14 10:34:57;;;;;;;33.40;21.55;;;;;;;-139.48;100.00;61774.03;4967984;28;20050;-68
2021/11/14 10:37:45;;;;;;;30.75;20.38;;;;;;;-139.48;100.00;61774.03;4968082;28;20058;-68
2021/11/14 10:40:31;;;;;;;30.88;21.25;;;;;;;-139.48;100.00;61774.03;4955501;29;20473;-68
2021/11/14 10:43:18;;;;;;;31.25;21.02;;;;;;;-139.48;100.00;61774.03;4967717;28;20106;-67
2021/11/14 10:46:03;;;;;;;31.35;20.65;;;;;;;-139.48;100.00;61774.03;4967427;28;20429;-68
2021/11/14 10:48:48;;;;;;;29.80;20.38;;;;;;;-139.48;100.00;61774.03;4967956;28;20106;-68
2021/11/14 10:51:33;;;;;;;32.28;20.95;;;;;;;-139.48;100.00;61774.03;4954262;28;20197;-68
2021/11/14 10:54:26;;;;;;;33.05;22.75;;;;;;;-139.48;100.00;61774.03;4967815;28;20154;-68
2021/11/14 10:57:11;;;;;;;31.00;20.13;;;;;;;-139.48;100.00;61774.03;4967891;28;20178;-68
2021/11/14 10:59:56;;;;;;;33.28;21.10;;;;;;;-139.48;100.00;61774.03;4968181;28;20109;-67
2021/11/14 11:02:44;;;;;;;32.17;21.70;;;;;;;-139.48;100.00;61774.03;4967729;28;20104;-67
2021/11/14 11:05:29;;;;;;;27.75;19.08;;;;;;;-139.48;100.00;61774.03;4968011;28;20101;-68
2021/11/14 11:08:21;;;;;;;29.90;19.90;;;;;;;-139.48;100.00;61774.03;4967722;28;20057;-68
2021/11/14 11:11:06;;;;;;;27.23;17.92;;;;;;;-139.48;100.00;61774.03;4967849;28;20057;-68
2021/11/14 11:13:51;;;;;;;29.33;20.55;;;;;;;-139.48;100.00;61774.03;4967262;28;20074;-68
2021/11/14 11:16:36;;;;;;;34.65;22.77;;;;;;;-139.48;100.00;61774.03;4967578;28;20101;-68
2021/11/14 11:19:24;;;;;;;31.45;19.67;;;;;;;-139.48;100.00;61774.03;4967875;28;20046;-68
2021/11/14 11:22:08;;;;;;;34.42;24.23;;;;;;;-139.48;100.00;61774.03;4955055;28;20106;-68
2021/11/14 11:24:54;;;;;;;29.77;23.92;;;;;;;-139.48;100.00;61774.03;4967516;28;20058;-68
2021/11/14 11:27:38;;;;;;;51.33;43.63;;;;;;;-139.48;100.00;61774.03;4953503;29;20049;-68
2021/11/14 11:30:37;;;;;;;37.60;27.45;;;;;;;-139.48;100.00;61774.03;4967453;28;20094;-69
2021/11/14 11:33:23;;;;;;;31.75;22.02;;;;;;;-139.48;100.00;61774.03;4967474;28;20058;-68
2021/11/14 11:36:08;;;;;;;33.22;26.92;;;;;;;-139.48;100.00;61774.03;4967403;28;20046;-69
2021/11/14 11:38:52;;;;;;;27.80;20.27;;;;;;;-139.48;100.00;61774.03;4954859;29;20093;-69
2021/11/14 11:41:37;;;;;;;31.48;25.85;;;;;;;-139.48;100.00;61774.03;4967015;28;20086;-67
2021/11/14 11:44:21;;;;;;;28.13;20.20;;;;;;;-139.48;100.00;61774.03;4954465;29;20145;-68
2021/11/14 11:47:09;;;;;;;25.63;18.33;;;;;;;-139.48;100.00;61774.03;4967291;28;20053;-67
2021/11/14 11:49:54;;;;;;;28.15;19.75;;;;;;;-139.48;100.00;61774.03;4967018;28;20061;-67
2021/11/14 11:52:40;;;;;;;27.30;19.10;;;;;;;-139.48;100.00;61774.03;4967318;28;20058;-67
2021/11/14 11:55:27;;;;;;;29.27;20.92;;;;;;;-139.48;100.00;61774.03;4967433;28;20082;-67
2021/11/14 11:58:15;;;;;;;22.33;15.93;;;;;;;-139.48;100.00;61774.03;4967282;28;20408;-67
2021/11/14 12:01:00;;;;;;;24.30;16.63;;;;;;;-139.48;100.00;61774.03;4970624;28;20050;-66
2021/11/14 12:03:44;;;;;;;21.83;15.93;;;;;;;-139.48;100.00;61774.03;4958328;29;20495;-67
2021/11/14 12:06:27;;;;;;;29.92;19.33;;;;;;;-139.48;100.00;61774.03;4958697;29;20050;-67
2021/11/14 12:09:16;;;;;;;24.30;17.77;;;;;;;-139.48;100.00;61774.03;4971212;28;20131;-67
2021/11/14 12:12:00;;;;;;;24.77;17.63;;;;;;;-139.48;100.00;61774.03;4970559;28;20102;-67